Inebolu — 9HA4359 — position and weather

sailwx.info

Track history (hours):
 
Tides and Currents Weather Stations Pressure Air Temp Water Temp Dewpoint Dewpoint Depression Visibility Wind Speed Wind Dir Waves Ship Positions

Inebolu

Last reported at 2018-Feb-12 04:52 UTC. Time now 2018-Feb-19 18:18 UTC.
Position N 32°10' E 034°35'.

Length 103 m; draft 5.2 m.

Type: Ship. MMSI: 249732000.

Date/timePositionNaut miles runAvg speedWind from/ knotsBaromVisibWave heightAir tempDewpointWater temp
2018-Feb-12 04:52N 32°10' E 034°35'513.1
2018-Feb-12 04:29N 32°15' E 034°36'613.1
2018-Feb-12 04:00N 32°21' E 034°38'713.2
2018-Feb-12 03:30N 32°27' E 034°41'713.8
2018-Feb-12 03:01N 32°34' E 034°43'713.8
2018-Feb-12 02:30N 32°40' E 034°45'713.5
2018-Feb-12 02:00N 32°47' E 034°48'612.8
2018-Feb-12 01:30N 32°52' E 034°51'712.8
2018-Feb-12 01:00N 32°52' E 034°59'167 3.9
2018-Feb-10 06:33N 31°15' E 032°18'0 0.0
2018-Feb-10 06:27N 31°15' E 032°18'0 0.0
2018-Feb-10 06:00N 31°15' E 032°18'0 0.0
2018-Feb-10 05:30N 31°15' E 032°18'0 0.0
2018-Feb-10 05:00N 31°15' E 032°18'0 0.0
2018-Feb-10 03:12N 31°15' E 032°18'  
2018-Feb-03 13:49N 40°46' E 029°32'1 2.2
2018-Feb-03 13:24N 40°45' E 029°31'3 8.7
2018-Feb-03 13:00N 40°44' E 029°27'5 9.8
2018-Feb-03 12:30N 40°43' E 029°20'5 9.4
2018-Feb-03 12:00N 40°43' E 029°14'0 0.4
2018-Feb-03 11:30N 40°43' E 029°14'0 0.3
2018-Feb-03 11:00N 40°43' E 029°14'3 4.9
2018-Feb-03 10:29N 40°44' E 029°17'0 0.6
2018-Feb-03 09:56N 40°44' E 029°18'0 0.6
2018-Feb-03 09:27N 40°44' E 029°17'0 0.5
2018-Feb-03 09:00N 40°43' E 029°17'0 0.4
2018-Feb-03 08:30N 40°43' E 029°17'0 0.5
2018-Feb-03 08:00N 40°43' E 029°17'1 0.4
2018-Feb-03 06:30N 40°43' E 029°16'0 0.4
2018-Feb-03 06:00N 40°43' E 029°16'0 0.5
2018-Feb-03 05:30N 40°43' E 029°15'0 0.5
2018-Feb-03 05:00N 40°43' E 029°15'1 0.8
2018-Feb-03 04:00N 40°43' E 029°14'0 0.9
2018-Feb-03 03:30N 40°43' E 029°13'1 0.8
2018-Feb-03 02:00N 40°43' E 029°12'0 0.8
2018-Feb-03 01:30N 40°43' E 029°11'0 0.9
2018-Feb-03 00:59N 40°43' E 029°11'1 1.1
2018-Feb-03 00:30N 40°43' E 029°10'3 6.3
2018-Feb-03 00:00N 40°42' E 029°06'612.3
2018-Feb-02 23:30N 40°41' E 028°58'  
Track history (hours):
 
Tides and Currents Weather Stations Pressure Air Temp Water Temp Dewpoint Dewpoint Depression Visibility Wind Speed Wind Dir Waves Ship Positions

Inebolu

Last reported at 2018-Feb-12 04:52 UTC. Time now 2018-Feb-19 18:18 UTC.
Position N 32°10' E 034°35'.

Length 103 m; draft 5.2 m.

Type: Ship. MMSI: 249732000.

Date/timePositionNaut miles runAvg speedWind from/ knotsBaromVisibWave heightAir tempDewpointWater temp
2018-Feb-12 04:52N 32°10' E 034°35'513.1
2018-Feb-12 04:29N 32°15' E 034°36'613.1
2018-Feb-12 04:00N 32°21' E 034°38'713.2
2018-Feb-12 03:30N 32°27' E 034°41'713.8
2018-Feb-12 03:01N 32°34' E 034°43'713.8
2018-Feb-12 02:30N 32°40' E 034°45'713.5
2018-Feb-12 02:00N 32°47' E 034°48'612.8
2018-Feb-12 01:30N 32°52' E 034°51'712.8
2018-Feb-12 01:00N 32°52' E 034°59'167 3.9
2018-Feb-10 06:33N 31°15' E 032°18'0 0.0
2018-Feb-10 06:27N 31°15' E 032°18'0 0.0
2018-Feb-10 06:00N 31°15' E 032°18'0 0.0
2018-Feb-10 05:30N 31°15' E 032°18'0 0.0
2018-Feb-10 05:00N 31°15' E 032°18'0 0.0
2018-Feb-10 03:12N 31°15' E 032°18'  
2018-Feb-03 13:49N 40°46' E 029°32'1 2.2
2018-Feb-03 13:24N 40°45' E 029°31'3 8.7
2018-Feb-03 13:00N 40°44' E 029°27'5 9.8
2018-Feb-03 12:30N 40°43' E 029°20'5 9.4
2018-Feb-03 12:00N 40°43' E 029°14'0 0.4
2018-Feb-03 11:30N 40°43' E 029°14'0 0.3
2018-Feb-03 11:00N 40°43' E 029°14'3 4.9
2018-Feb-03 10:29N 40°44' E 029°17'0 0.6
2018-Feb-03 09:56N 40°44' E 029°18'0 0.6
2018-Feb-03 09:27N 40°44' E 029°17'0 0.5
2018-Feb-03 09:00N 40°43' E 029°17'0 0.4
2018-Feb-03 08:30N 40°43' E 029°17'0 0.5
2018-Feb-03 08:00N 40°43' E 029°17'1 0.4
2018-Feb-03 06:30N 40°43' E 029°16'0 0.4
2018-Feb-03 06:00N 40°43' E 029°16'0 0.5
2018-Feb-03 05:30N 40°43' E 029°15'0 0.5
2018-Feb-03 05:00N 40°43' E 029°15'1 0.8
2018-Feb-03 04:00N 40°43' E 029°14'0 0.9
2018-Feb-03 03:30N 40°43' E 029°13'1 0.8
2018-Feb-03 02:00N 40°43' E 029°12'0 0.8
2018-Feb-03 01:30N 40°43' E 029°11'0 0.9
2018-Feb-03 00:59N 40°43' E 029°11'1 1.1
2018-Feb-03 00:30N 40°43' E 029°10'3 6.3
2018-Feb-03 00:00N 40°42' E 029°06'612.3
2018-Feb-02 23:30N 40°41' E 028°58'  

Dump ship's entire track history